createdAt,value
2023-01-22T00:04:24.871Z,48.72
2023-01-22T00:06:52.443Z,41.85
2023-01-22T00:09:22.384Z,46.55
2023-01-22T00:11:50.573Z,42.78
2023-01-22T00:14:18.196Z,47.25
2023-01-22T00:16:45.925Z,47.70
2023-01-22T00:19:13.443Z,42.42
2023-01-22T00:21:40.898Z,44.20
2023-01-22T00:24:09.028Z,47.35
2023-01-22T00:26:37.848Z,42.35
2023-01-22T00:29:05.553Z,47.63
2023-01-22T00:31:33.096Z,49.58
2023-01-22T00:34:00.781Z,45.90
2023-01-22T00:36:30.185Z,48.85
2023-01-22T00:38:57.601Z,49.75
2023-01-22T00:41:25.272Z,45.78
2023-01-22T00:43:53.879Z,45.25
2023-01-22T00:46:21.575Z,53.55
2023-01-22T00:48:50.877Z,49.22
2023-01-22T00:51:18.641Z,47.63
2023-01-22T00:53:47.230Z,50.90
2023-01-22T00:56:15.951Z,54.17
2023-01-22T00:58:44.094Z,48.38
2023-01-22T01:03:37.854Z,48.50
2023-01-22T01:06:05.846Z,47.55
2023-01-22T01:08:35.255Z,47.10
2023-01-22T01:11:04.232Z,45.65
2023-01-22T01:13:33.171Z,49.33
2023-01-22T01:16:01.962Z,47.67
2023-01-22T01:18:30.406Z,50.10
2023-01-22T01:20:58.535Z,55.13
2023-01-22T01:23:27.019Z,51.80
2023-01-22T01:25:55.018Z,51.45
2023-01-22T01:28:22.571Z,47.63
2023-01-22T01:30:50.244Z,47.88
2023-01-22T01:33:18.233Z,47.33
2023-01-22T01:35:45.956Z,44.75
2023-01-22T01:38:14.653Z,48.83
2023-01-22T01:40:46.243Z,54.17
2023-01-22T01:43:17.300Z,50.10
2023-01-22T01:45:45.280Z,48.83
2023-01-22T01:48:28.919Z,46.35
2023-01-22T01:50:59.307Z,51.13
2023-01-22T01:55:57.818Z,45.25
2023-01-22T01:58:28.801Z,42.90
2023-01-22T02:00:59.537Z,44.60
2023-01-22T02:03:28.667Z,45.80
2023-01-22T02:05:57.355Z,46.67
2023-01-22T02:08:25.444Z,43.55
2023-01-22T02:10:53.732Z,43.33
2023-01-22T02:13:23.434Z,50.00
2023-01-22T02:15:50.913Z,47.40
2023-01-22T02:18:18.613Z,44.72
2023-01-22T02:21:12.708Z,45.97
2023-01-22T02:23:40.454Z,45.33
2023-01-22T02:26:07.955Z,45.78
2023-01-22T02:28:37.704Z,42.22
2023-01-22T02:31:05.707Z,47.20
2023-01-22T02:33:35.134Z,45.00
2023-01-22T02:36:02.847Z,47.05
2023-01-22T02:38:30.623Z,39.50
2023-01-22T02:40:59.592Z,43.65
2023-01-22T02:43:28.324Z,44.25
2023-01-22T02:45:55.874Z,42.83
2023-01-22T02:48:26.910Z,42.28
2023-01-22T02:50:54.661Z,41.33
2023-01-22T02:53:22.639Z,46.55
2023-01-22T02:55:50.303Z,41.30
2023-01-22T02:58:17.875Z,40.85
2023-01-22T03:00:45.724Z,40.13
2023-01-22T03:03:15.736Z,39.67
2023-01-22T03:05:48.156Z,40.05
2023-01-22T03:08:15.851Z,42.33
2023-01-22T03:10:43.859Z,37.70
2023-01-22T03:13:30.023Z,37.55
2023-01-22T03:16:19.767Z,45.47
2023-01-22T03:19:06.038Z,49.37
2023-01-22T03:21:34.223Z,39.25
2023-01-22T03:24:02.783Z,41.17
2023-01-22T03:26:31.983Z,37.83
2023-01-22T03:29:00.198Z,51.60
2023-01-22T03:31:28.637Z,38.65
2023-01-22T03:33:57.009Z,38.70
2023-01-22T03:36:24.882Z,45.20
2023-01-22T03:38:56.097Z,39.30
2023-01-22T03:41:25.887Z,43.97
2023-01-22T03:43:54.092Z,43.00
2023-01-22T03:46:26.908Z,40.05
2023-01-22T03:49:00.188Z,40.47
2023-01-22T03:51:29.012Z,39.85
2023-01-22T03:53:57.282Z,38.28
2023-01-22T03:56:27.251Z,37.28
2023-01-22T03:59:00.767Z,38.10
2023-01-22T04:01:30.201Z,38.10
2023-01-22T04:03:58.474Z,40.60
2023-01-22T04:06:28.163Z,37.00
2023-01-22T04:08:57.160Z,36.83
2023-01-22T04:11:35.056Z,37.08
2023-01-22T04:14:07.631Z,40.67
2023-01-22T04:16:36.950Z,36.55
2023-01-22T04:19:10.596Z,38.42
2023-01-22T04:21:58.347Z,39.88
2023-01-22T04:24:25.903Z,34.88
2023-01-22T04:26:54.330Z,33.75
2023-01-22T04:29:23.159Z,34.67
2023-01-22T04:31:50.896Z,31.90
2023-01-22T04:34:21.617Z,34.15
2023-01-22T04:37:09.639Z,38.40
2023-01-22T04:39:37.421Z,34.90
2023-01-22T04:42:05.261Z,32.55
2023-01-22T04:44:33.604Z,28.63
2023-01-22T04:47:04.184Z,32.72
2023-01-22T04:49:32.519Z,34.65
2023-01-22T04:52:00.490Z,30.88
2023-01-22T04:54:30.236Z,36.50
2023-01-22T04:56:57.993Z,34.10
2023-01-22T04:59:26.031Z,33.65
2023-01-22T05:01:54.351Z,33.95
2023-01-22T05:04:23.991Z,34.13
2023-01-22T05:06:51.878Z,33.92
2023-01-22T05:09:20.208Z,38.33
2023-01-22T05:11:54.394Z,34.65
2023-01-22T05:14:22.002Z,34.45
2023-01-22T05:16:50.602Z,36.13
2023-01-22T05:19:18.143Z,35.38
2023-01-22T05:21:45.689Z,36.97
2023-01-22T05:24:18.585Z,36.35
2023-01-22T05:26:46.502Z,30.67
2023-01-22T05:29:18.742Z,30.70
2023-01-22T05:32:05.204Z,36.95
2023-01-22T05:34:37.634Z,35.42
2023-01-22T05:37:07.109Z,36.28
2023-01-22T05:39:36.084Z,31.77
2023-01-22T05:42:05.903Z,36.72
2023-01-22T05:44:34.312Z,39.35
2023-01-22T05:47:02.716Z,36.28
2023-01-22T05:49:43.599Z,35.63
2023-01-22T05:52:14.033Z,37.10
2023-01-22T05:54:42.068Z,36.35
2023-01-22T05:57:09.729Z,35.83
2023-01-22T05:59:39.282Z,41.33
2023-01-22T06:02:08.837Z,34.90
2023-01-22T06:04:41.832Z,38.00
2023-01-22T06:07:31.244Z,40.33
2023-01-22T06:09:59.996Z,36.75
2023-01-22T06:12:29.104Z,45.25
2023-01-22T06:14:56.925Z,37.78
2023-01-22T06:17:24.870Z,37.38
2023-01-22T06:19:55.534Z,40.78
2023-01-22T06:22:23.384Z,39.90
2023-01-22T06:24:55.796Z,37.95
2023-01-22T06:27:27.075Z,40.72
2023-01-22T06:29:59.400Z,37.88
2023-01-22T06:32:28.953Z,36.42
2023-01-22T06:34:59.274Z,36.30
2023-01-22T06:37:28.418Z,36.17
2023-01-22T06:40:00.990Z,42.70
2023-01-22T06:42:39.939Z,40.80
2023-01-22T06:45:08.158Z,34.70
2023-01-22T06:47:38.426Z,33.28
2023-01-22T06:50:06.327Z,37.65
2023-01-22T06:52:35.115Z,33.47
2023-01-22T06:55:03.014Z,30.75
2023-01-22T06:57:30.615Z,35.08
2023-01-22T06:59:59.146Z,33.90
2023-01-22T07:02:27.044Z,33.63
2023-01-22T07:04:54.579Z,36.53
2023-01-22T07:07:22.178Z,32.95
2023-01-22T07:09:50.687Z,30.90
2023-01-22T07:12:18.540Z,41.92
2023-01-22T07:14:46.054Z,29.42
2023-01-22T07:17:14.470Z,30.98
2023-01-22T07:19:42.313Z,29.85
2023-01-22T07:22:10.055Z,31.77
2023-01-22T07:24:37.521Z,27.52
2023-01-22T07:27:05.171Z,37.92
2023-01-22T07:29:32.940Z,28.55
2023-01-22T07:32:00.660Z,30.15
2023-01-22T07:34:30.144Z,30.60
2023-01-22T07:37:02.072Z,31.77
2023-01-22T07:39:29.949Z,32.08
2023-01-22T07:42:01.558Z,26.58
2023-01-22T07:44:36.992Z,30.52
2023-01-22T07:47:08.339Z,30.17
2023-01-22T07:49:36.162Z,33.22
2023-01-22T07:52:03.847Z,27.00
2023-01-22T07:54:33.745Z,22.42
2023-01-22T07:57:16.104Z,21.52
2023-01-22T07:59:44.017Z,23.10
2023-01-22T08:02:12.732Z,25.13
2023-01-22T08:04:41.011Z,24.42
2023-01-22T08:07:14.297Z,25.25
2023-01-22T08:09:41.846Z,24.92
2023-01-22T08:12:09.339Z,24.77
2023-01-22T08:14:37.242Z,25.65
2023-01-22T08:17:04.779Z,22.80
2023-01-22T08:19:32.647Z,28.27
2023-01-22T08:22:02.751Z,19.67
2023-01-22T08:24:30.277Z,23.38
2023-01-22T08:26:58.377Z,22.42
2023-01-22T08:29:27.255Z,19.33
2023-01-22T08:31:55.197Z,23.52
2023-01-22T08:34:23.094Z,21.80
2023-01-22T08:36:51.068Z,23.10
2023-01-22T08:39:18.518Z,19.83
2023-01-22T08:41:46.381Z,19.27
2023-01-22T08:44:14.213Z,20.73
2023-01-22T08:46:41.965Z,22.75
2023-01-22T08:49:10.145Z,23.02
2023-01-22T08:51:37.854Z,22.25
2023-01-22T08:54:05.643Z,24.70
2023-01-22T08:56:33.010Z,22.10
2023-01-22T08:59:06.651Z,22.40
2023-01-22T09:01:34.966Z,21.20
2023-01-22T09:04:06.485Z,22.42
2023-01-22T09:06:34.429Z,22.85
2023-01-22T09:09:01.993Z,21.17
2023-01-22T09:11:29.803Z,21.25
2023-01-22T09:13:58.563Z,19.55
2023-01-22T09:16:26.995Z,23.58
2023-01-22T09:18:54.626Z,19.60
2023-01-22T09:21:22.377Z,20.92
2023-01-22T09:23:50.162Z,22.98
2023-01-22T09:26:17.672Z,22.30
2023-01-22T09:28:45.443Z,21.73
2023-01-22T09:31:13.713Z,21.25
2023-01-22T09:33:41.282Z,20.50
2023-01-22T09:36:13.632Z,20.20
2023-01-22T09:38:41.389Z,19.58
2023-01-22T09:41:14.935Z,22.52
2023-01-22T09:43:48.739Z,23.35
2023-01-22T09:46:19.405Z,19.10
2023-01-22T09:48:48.943Z,17.13
2023-01-22T09:51:17.451Z,17.00
2023-01-22T09:53:47.455Z,27.15
2023-01-22T09:56:23.846Z,18.70
2023-01-22T09:58:52.848Z,17.25
2023-01-22T10:01:20.718Z,18.83
2023-01-22T10:03:51.757Z,16.58
2023-01-22T10:06:23.007Z,16.40
2023-01-22T10:08:53.494Z,19.02
2023-01-22T10:13:50.823Z,17.38
2023-01-22T10:16:18.494Z,15.30
2023-01-22T10:18:46.438Z,16.25
2023-01-22T10:21:19.539Z,16.50
2023-01-22T10:23:48.375Z,21.08
2023-01-22T10:26:28.169Z,16.52
2023-01-22T10:28:58.650Z,20.92
2023-01-22T10:31:27.262Z,21.33
2023-01-22T10:33:59.013Z,16.48
2023-01-22T10:36:31.450Z,15.82
2023-01-22T10:39:07.052Z,19.55
2023-01-22T10:41:34.618Z,15.27
2023-01-22T10:44:30.789Z,19.17
2023-01-22T10:47:08.251Z,14.02
2023-01-22T10:49:36.157Z,17.60
2023-01-22T10:52:07.307Z,17.85
2023-01-22T10:54:39.632Z,17.98
2023-01-22T10:57:10.413Z,23.60
2023-01-22T10:59:39.347Z,16.80
2023-01-22T11:02:17.209Z,16.13
2023-01-22T11:04:44.764Z,21.08
2023-01-22T11:07:17.356Z,15.65
2023-01-22T11:10:03.772Z,20.75
2023-01-22T11:12:37.142Z,20.73
2023-01-22T11:15:06.102Z,16.48
2023-01-22T11:17:43.954Z,17.70
2023-01-22T11:20:19.236Z,19.80
2023-01-22T11:22:51.852Z,21.80
2023-01-22T11:25:20.270Z,20.80
2023-01-22T11:27:59.468Z,16.52
2023-01-22T11:30:27.756Z,19.90
2023-01-22T11:33:02.073Z,20.83
2023-01-22T11:35:39.477Z,16.95
2023-01-22T11:38:07.361Z,19.17
2023-01-22T11:40:44.092Z,17.55
2023-01-22T11:43:11.547Z,14.85
2023-01-22T11:45:55.523Z,17.08
2023-01-22T11:48:41.131Z,14.73
2023-01-22T11:51:11.770Z,18.15
2023-01-22T11:53:58.964Z,15.55
2023-01-22T11:56:29.840Z,16.02
2023-01-22T11:59:16.262Z,19.95
2023-01-22T12:01:55.573Z,15.85
2023-01-22T12:04:52.841Z,18.13
2023-01-22T12:07:45.669Z,19.05
2023-01-22T12:10:22.315Z,18.00
2023-01-22T12:12:50.256Z,17.48
2023-01-22T12:15:21.199Z,26.17
2023-01-22T12:18:03.190Z,21.08
2023-01-22T12:20:54.105Z,22.17
2023-01-22T12:23:27.120Z,19.33
2023-01-22T12:26:00.817Z,20.02
2023-01-22T12:28:32.792Z,19.38
2023-01-22T12:31:09.598Z,19.95
2023-01-22T12:33:41.408Z,15.02
2023-01-22T12:36:13.125Z,16.52
2023-01-22T12:38:59.747Z,17.63
2023-01-22T12:41:30.834Z,16.33
2023-01-22T12:44:18.091Z,16.58
2023-01-22T12:46:51.466Z,19.13
2023-01-22T12:49:21.103Z,20.60
2023-01-22T12:51:50.471Z,17.63
2023-01-22T12:54:25.631Z,19.02
2023-01-22T12:56:58.210Z,21.50
2023-01-22T12:59:33.493Z,21.02
2023-01-22T13:02:02.468Z,17.70
2023-01-22T13:04:34.566Z,16.10
2023-01-22T13:07:06.695Z,21.80
2023-01-22T13:09:38.120Z,20.60
2023-01-22T13:12:09.813Z,22.83
2023-01-22T13:14:41.215Z,19.25
2023-01-22T13:17:20.296Z,20.65
2023-01-22T13:19:50.489Z,18.40
2023-01-22T13:24:50.239Z,20.80
2023-01-22T13:27:27.304Z,19.90
2023-01-22T13:30:07.666Z,25.83
2023-01-22T13:32:35.303Z,16.75
2023-01-22T13:35:20.226Z,19.75
2023-01-22T13:37:51.954Z,22.80
2023-01-22T13:40:28.056Z,21.08
2023-01-22T13:42:59.521Z,22.35
2023-01-22T13:45:29.093Z,21.65
2023-01-22T13:47:58.708Z,22.73
2023-01-22T13:50:33.024Z,22.20
2023-01-22T13:53:03.626Z,19.63
2023-01-22T13:55:32.091Z,22.65
2023-01-22T13:58:04.908Z,23.15
2023-01-22T14:00:36.851Z,20.20
2023-01-22T14:03:22.373Z,23.35
2023-01-22T14:05:50.501Z,21.17
2023-01-22T14:08:19.060Z,23.08
2023-01-22T14:10:58.385Z,28.45
2023-01-22T14:13:26.014Z,22.83
2023-01-22T14:15:59.849Z,22.83
2023-01-22T14:18:29.724Z,19.25
2023-01-22T14:20:59.135Z,19.92
2023-01-22T14:23:26.954Z,23.83
2023-01-22T14:25:55.871Z,24.95
2023-01-22T14:28:24.128Z,22.02
2023-01-22T14:30:52.546Z,19.75
2023-01-22T14:33:21.932Z,26.45
2023-01-22T14:35:50.831Z,21.60
2023-01-22T14:38:19.113Z,23.38
2023-01-22T14:40:47.270Z,22.25
2023-01-22T14:43:16.395Z,28.15
2023-01-22T14:45:45.383Z,22.85
2023-01-22T14:48:14.069Z,22.63
2023-01-22T14:50:42.292Z,29.10
2023-01-22T14:53:10.346Z,22.58
2023-01-22T14:55:37.852Z,25.17
2023-01-22T14:58:06.251Z,23.25
2023-01-22T15:00:35.359Z,25.58
2023-01-22T15:03:03.194Z,25.05
2023-01-22T15:05:30.729Z,24.92
2023-01-22T15:08:02.169Z,23.48
2023-01-22T15:10:29.879Z,26.02
2023-01-22T15:12:58.276Z,23.90
2023-01-22T15:15:28.731Z,26.83
2023-01-22T15:20:25.764Z,27.15
2023-01-22T15:22:54.571Z,26.63
2023-01-22T15:25:22.177Z,26.70
2023-01-22T15:27:49.951Z,24.98
2023-01-22T15:30:18.107Z,26.98
2023-01-22T15:32:45.761Z,24.60
2023-01-22T15:35:13.459Z,29.08
2023-01-22T15:37:41.000Z,29.60
2023-01-22T15:40:10.310Z,28.80
2023-01-22T15:42:37.818Z,25.42
2023-01-22T15:45:06.846Z,31.00
2023-01-22T15:47:35.343Z,25.20
2023-01-22T15:50:04.029Z,28.92
2023-01-22T15:52:32.000Z,25.88
2023-01-22T15:55:00.446Z,27.55
2023-01-22T15:57:28.754Z,28.80
2023-01-22T15:59:56.997Z,28.67
2023-01-22T16:02:24.542Z,24.98
2023-01-22T16:04:52.156Z,32.20
2023-01-22T16:07:20.067Z,25.52
2023-01-22T16:09:47.679Z,27.52
2023-01-22T16:12:15.366Z,25.13
2023-01-22T16:14:43.155Z,29.35
2023-01-22T16:17:10.843Z,25.63
2023-01-22T16:19:38.379Z,28.35
2023-01-22T16:22:06.390Z,31.95
2023-01-22T16:24:35.277Z,30.25
2023-01-22T16:27:03.977Z,28.48
2023-01-22T16:29:31.409Z,24.77
2023-01-22T16:32:08.694Z,31.30
2023-01-22T16:34:36.309Z,32.47
2023-01-22T16:37:03.979Z,27.35
2023-01-22T16:39:33.956Z,28.92
2023-01-22T16:42:02.108Z,30.60
2023-01-22T16:44:31.293Z,30.92
2023-01-22T16:47:01.320Z,32.78
2023-01-22T16:49:33.313Z,33.42
2023-01-22T16:52:16.568Z,27.15
2023-01-22T16:54:49.501Z,28.58
2023-01-22T16:57:18.355Z,29.20
2023-01-22T16:59:46.319Z,32.47
2023-01-22T17:02:15.646Z,32.92
2023-01-22T17:04:43.421Z,36.13
2023-01-22T17:07:27.388Z,28.73
2023-01-22T17:10:01.027Z,31.58
2023-01-22T17:12:30.456Z,33.90
2023-01-22T17:14:58.217Z,34.20
2023-01-22T17:17:26.937Z,32.78
2023-01-22T17:19:54.431Z,31.80
2023-01-22T17:22:22.742Z,31.20
2023-01-22T17:24:53.389Z,34.15
2023-01-22T17:27:21.623Z,31.60
2023-01-22T17:29:49.222Z,34.17
2023-01-22T17:32:16.780Z,31.13
2023-01-22T17:34:44.301Z,32.40
2023-01-22T17:37:13.770Z,39.13
2023-01-22T17:39:43.175Z,39.13
2023-01-22T17:42:11.083Z,34.85
2023-01-22T17:44:40.885Z,32.58
2023-01-22T17:47:08.515Z,33.17
2023-01-22T17:49:36.559Z,35.85
2023-01-22T17:52:04.388Z,32.42
2023-01-22T17:54:32.561Z,32.47
2023-01-22T17:57:00.930Z,30.90
2023-01-22T17:59:29.425Z,34.78
2023-01-22T18:01:58.315Z,33.63
2023-01-22T18:04:26.046Z,31.98
2023-01-22T18:06:55.470Z,32.85
2023-01-22T18:09:23.454Z,32.17
2023-01-22T18:11:51.051Z,32.78
2023-01-22T18:14:23.298Z,34.70
2023-01-22T18:16:51.285Z,32.58
2023-01-22T18:19:18.958Z,33.50
2023-01-22T18:21:46.503Z,31.05
2023-01-22T18:24:14.384Z,42.53
2023-01-22T18:26:42.091Z,30.60
2023-01-22T18:29:11.604Z,30.08
2023-01-22T18:31:39.427Z,34.17
2023-01-22T18:34:07.708Z,36.67
2023-01-22T18:36:37.041Z,32.10
2023-01-22T18:39:06.943Z,33.13
2023-01-22T18:41:37.287Z,35.45
2023-01-22T18:44:05.075Z,39.50
2023-01-22T18:46:34.065Z,40.38
2023-01-22T18:49:02.713Z,39.50
2023-01-22T18:51:30.685Z,35.60
2023-01-22T18:53:59.552Z,39.63
2023-01-22T18:56:27.057Z,36.90
2023-01-22T18:58:55.510Z,43.20
2023-01-22T19:01:25.706Z,44.92
2023-01-22T19:03:54.461Z,38.47
2023-01-22T19:06:23.344Z,35.85
2023-01-22T19:08:56.594Z,46.17
2023-01-22T19:11:25.641Z,40.65
2023-01-22T19:13:54.514Z,35.05
2023-01-22T19:16:25.107Z,42.67
2023-01-22T19:19:00.271Z,44.72
2023-01-22T19:21:28.856Z,43.70
2023-01-22T19:24:00.637Z,39.60
2023-01-22T19:26:32.058Z,42.22
2023-01-22T19:29:02.412Z,42.75
2023-01-22T19:31:34.802Z,43.90
2023-01-22T19:34:03.158Z,45.67
2023-01-22T19:36:32.051Z,43.60
2023-01-22T19:39:03.954Z,43.05
2023-01-22T19:41:31.787Z,48.65
2023-01-22T19:44:02.501Z,41.03
2023-01-22T19:46:30.200Z,45.92
2023-01-22T19:48:58.643Z,41.83
2023-01-22T19:51:28.564Z,49.55
2023-01-22T19:54:04.878Z,49.10
2023-01-22T19:56:34.131Z,39.53
2023-01-22T19:59:06.341Z,42.55
2023-01-22T20:01:34.671Z,49.88
2023-01-22T20:04:03.863Z,35.85
2023-01-22T20:06:31.667Z,52.55
2023-01-22T20:09:01.736Z,55.58
2023-01-22T20:11:29.631Z,49.53
2023-01-22T20:13:58.379Z,48.30
2023-01-22T20:16:28.628Z,41.92
2023-01-22T20:18:58.184Z,43.45
2023-01-22T20:21:31.024Z,42.57
2023-01-22T20:23:59.230Z,54.65
2023-01-22T20:26:27.202Z,81.47
2023-01-22T20:28:55.335Z,66.65
2023-01-22T20:31:24.201Z,50.92
2023-01-22T20:33:53.031Z,46.38
2023-01-22T20:36:21.595Z,48.95
2023-01-22T20:38:52.584Z,45.05
2023-01-22T20:41:21.859Z,48.95
2023-01-22T20:43:50.050Z,44.30
2023-01-22T20:46:19.491Z,45.67
2023-01-22T20:48:47.295Z,45.92
2023-01-22T20:51:17.076Z,45.78
2023-01-22T20:53:45.567Z,41.25
2023-01-22T20:56:14.732Z,40.25
2023-01-22T20:58:42.822Z,46.92
2023-01-22T21:01:15.944Z,46.92
2023-01-22T21:03:44.549Z,43.03
2023-01-22T21:06:14.164Z,46.42
2023-01-22T21:08:42.549Z,44.08
2023-01-22T21:11:12.539Z,46.83
2023-01-22T21:13:40.456Z,39.58
2023-01-22T21:16:12.981Z,43.13
2023-01-22T21:18:43.778Z,40.90
2023-01-22T21:21:12.776Z,46.58
2023-01-22T21:23:40.354Z,45.53
2023-01-22T21:26:09.376Z,39.40
2023-01-22T21:28:37.552Z,44.13
2023-01-22T21:31:08.968Z,41.33
2023-01-22T21:33:38.859Z,44.92
2023-01-22T21:36:06.983Z,39.42
2023-01-22T21:38:34.643Z,46.95
2023-01-22T21:41:10.198Z,43.22
2023-01-22T21:43:59.575Z,48.13
2023-01-22T21:46:28.544Z,36.20
2023-01-22T21:48:59.648Z,47.40
2023-01-22T21:51:28.596Z,46.97
2023-01-22T21:53:57.096Z,40.22
2023-01-22T21:56:25.296Z,46.30
2023-01-22T21:58:52.958Z,42.88
2023-01-22T22:01:22.894Z,40.88
2023-01-22T22:03:50.599Z,47.35
2023-01-22T22:06:18.743Z,40.97
2023-01-22T22:08:46.639Z,51.45
2023-01-22T22:11:14.752Z,43.22
2023-01-22T22:13:42.375Z,45.20
2023-01-22T22:16:11.450Z,37.92
2023-01-22T22:18:39.605Z,41.47
2023-01-22T22:21:08.941Z,44.72
2023-01-22T22:23:37.307Z,44.78
2023-01-22T22:26:05.846Z,43.50
2023-01-22T22:28:33.931Z,37.85
2023-01-22T22:31:11.954Z,38.17
2023-01-22T22:33:40.197Z,43.22
2023-01-22T22:36:08.205Z,40.78
2023-01-22T22:38:35.887Z,41.45
2023-01-22T22:41:05.220Z,42.88
2023-01-22T22:43:34.212Z,39.90
2023-01-22T22:46:02.832Z,39.08
2023-01-22T22:48:30.401Z,41.20
2023-01-22T22:50:58.900Z,42.42
2023-01-22T22:53:27.106Z,40.42
2023-01-22T22:55:54.699Z,42.42
2023-01-22T22:58:27.377Z,46.55
2023-01-22T23:00:55.121Z,38.72
2023-01-22T23:03:22.628Z,35.42
2023-01-22T23:05:50.799Z,41.53
2023-01-22T23:08:18.483Z,39.40
2023-01-22T23:10:45.973Z,40.42
2023-01-22T23:13:13.447Z,37.55
2023-01-22T23:15:40.981Z,39.88
2023-01-22T23:18:09.094Z,36.65
2023-01-22T23:20:36.739Z,44.70
2023-01-22T23:23:04.462Z,41.70
2023-01-22T23:25:32.007Z,41.38
2023-01-22T23:27:59.551Z,38.42
2023-01-22T23:30:27.967Z,36.50
2023-01-22T23:32:55.465Z,41.92
2023-01-22T23:35:23.098Z,47.08
2023-01-22T23:37:50.856Z,41.10
2023-01-22T23:40:18.717Z,40.17
2023-01-22T23:42:50.549Z,37.88
2023-01-22T23:45:18.366Z,38.75
2023-01-22T23:47:45.823Z,38.25
2023-01-22T23:50:13.379Z,37.78
2023-01-22T23:52:40.912Z,40.25
2023-01-22T23:55:08.706Z,45.25
2023-01-22T23:57:36.527Z,40.70
